createdAt,value
2023-05-01T00:01:29.100Z,7.05
2023-05-01T00:03:55.508Z,7.62
2023-05-01T00:06:22.035Z,7.43
2023-05-01T00:08:48.420Z,7.74
2023-05-01T00:11:14.737Z,7.73
2023-05-01T00:13:41.033Z,7.65
2023-05-01T00:16:07.338Z,7.80
2023-05-01T00:18:33.670Z,7.53
2023-05-01T00:20:59.968Z,7.98
2023-05-01T00:23:26.279Z,7.94
2023-05-01T00:25:52.584Z,7.90
2023-05-01T00:28:18.913Z,8.10
2023-05-01T00:30:45.241Z,7.90
2023-05-01T00:33:11.578Z,7.79
2023-05-01T00:35:37.936Z,7.59
2023-05-01T00:38:04.267Z,7.71
2023-05-01T00:40:30.608Z,8.10
2023-05-01T00:42:56.926Z,8.05
2023-05-01T00:45:23.246Z,7.91
2023-05-01T00:47:49.660Z,7.94
2023-05-01T00:50:16.015Z,7.46
2023-05-01T00:52:42.341Z,7.47
2023-05-01T00:55:08.689Z,7.53
2023-05-01T00:57:35.000Z,8.16
2023-05-01T01:00:01.326Z,7.82
2023-05-01T01:02:27.659Z,7.06
2023-05-01T01:04:54.145Z,6.78
2023-05-01T01:07:20.646Z,6.76
2023-05-01T01:09:46.979Z,6.36
2023-05-01T01:12:13.328Z,5.98
2023-05-01T01:14:39.639Z,6.33
2023-05-01T01:17:06.088Z,6.70
2023-05-01T01:19:32.480Z,6.74
2023-05-01T01:21:58.781Z,6.97
2023-05-01T01:24:25.102Z,7.19
2023-05-01T01:26:51.425Z,7.33
2023-05-01T01:29:17.749Z,7.10
2023-05-01T01:31:44.227Z,7.13
2023-05-01T01:34:10.725Z,6.75
2023-05-01T01:36:37.052Z,7.02
2023-05-01T01:39:03.368Z,7.02
2023-05-01T01:41:29.692Z,6.78
2023-05-01T01:43:55.996Z,6.87
2023-05-01T01:46:22.344Z,7.15
2023-05-01T01:48:48.693Z,7.53
2023-05-01T01:51:15.013Z,7.43
2023-05-01T01:53:41.317Z,6.80
2023-05-01T01:56:07.622Z,6.99
2023-05-01T01:58:33.929Z,7.02
2023-05-01T02:01:00.251Z,6.89
2023-05-01T02:03:26.797Z,7.26
2023-05-01T02:05:53.280Z,7.53
2023-05-01T02:08:19.600Z,7.61
2023-05-01T02:10:45.917Z,7.75
2023-05-01T02:13:12.277Z,7.61
2023-05-01T02:15:38.606Z,7.60
2023-05-01T02:18:04.975Z,8.26
2023-05-01T02:20:31.364Z,8.05
2023-05-01T02:22:57.704Z,8.21
2023-05-01T02:25:25.071Z,7.88
2023-05-01T02:27:51.389Z,7.60
2023-05-01T02:30:17.728Z,7.39
2023-05-01T02:32:44.134Z,7.43
2023-05-01T02:35:10.521Z,7.34
2023-05-01T02:37:36.844Z,7.10
2023-05-01T02:40:03.170Z,7.23
2023-05-01T02:42:29.498Z,7.42
2023-05-01T02:44:55.821Z,7.02
2023-05-01T02:47:22.200Z,7.19
2023-05-01T02:49:48.563Z,7.10
2023-05-01T02:52:14.862Z,7.58
2023-05-01T02:54:41.211Z,7.18
2023-05-01T02:57:07.538Z,6.93
2023-05-01T02:59:33.867Z,6.97
2023-05-01T03:02:00.178Z,7.18
2023-05-01T03:04:26.556Z,7.34
2023-05-01T03:06:52.942Z,7.53
2023-05-01T03:09:19.262Z,8.00
2023-05-01T03:11:45.565Z,7.25
2023-05-01T03:14:11.884Z,7.55
2023-05-01T03:16:38.323Z,7.78
2023-05-01T03:19:04.690Z,8.24
2023-05-01T03:21:31.002Z,7.48
2023-05-01T03:23:57.317Z,8.09
2023-05-01T03:26:23.636Z,7.89
2023-05-01T03:28:49.968Z,8.62
2023-05-01T03:31:16.298Z,8.71
2023-05-01T03:33:42.602Z,9.54
2023-05-01T03:36:08.906Z,8.13
2023-05-01T03:38:35.224Z,7.35
2023-05-01T03:41:01.536Z,7.67
2023-05-01T03:43:27.854Z,7.58
2023-05-01T03:45:54.188Z,7.44
2023-05-01T03:48:20.525Z,7.43
2023-05-01T03:50:46.869Z,7.27
2023-05-01T03:53:13.173Z,7.74
2023-05-01T03:55:39.496Z,7.65
2023-05-01T03:58:05.852Z,7.30
2023-05-01T04:00:32.172Z,6.79
2023-05-01T04:02:58.592Z,7.00
2023-05-01T04:05:25.067Z,7.02
2023-05-01T04:07:51.391Z,7.06
2023-05-01T04:10:17.725Z,7.16
2023-05-01T04:12:44.034Z,6.80
2023-05-01T04:15:10.344Z,6.83
2023-05-01T04:17:36.677Z,7.21
2023-05-01T04:20:03.033Z,7.46
2023-05-01T04:22:29.339Z,7.23
2023-05-01T04:24:55.848Z,7.35
2023-05-01T04:27:22.160Z,7.42
2023-05-01T04:29:48.499Z,7.73
2023-05-01T04:32:14.824Z,7.83
2023-05-01T04:34:41.118Z,7.72
2023-05-01T04:37:07.414Z,8.13
2023-05-01T04:39:33.717Z,8.28
2023-05-01T04:42:00.035Z,7.98
2023-05-01T04:44:26.367Z,8.18
2023-05-01T04:46:52.861Z,8.23
2023-05-01T04:49:19.304Z,8.10
2023-05-01T04:51:45.609Z,7.93
2023-05-01T04:54:11.957Z,8.46
2023-05-01T04:56:38.265Z,8.02
2023-05-01T04:59:04.580Z,7.86
2023-05-01T05:01:30.987Z,8.27
2023-05-01T05:03:57.488Z,8.55
2023-05-01T05:06:23.901Z,8.80
2023-05-01T05:08:50.221Z,8.90
2023-05-01T05:11:16.528Z,9.05
2023-05-01T05:13:42.844Z,9.25
2023-05-01T05:16:09.178Z,9.76
2023-05-01T05:18:35.499Z,8.81
2023-05-01T05:21:01.810Z,8.60
2023-05-01T05:23:28.117Z,8.38
2023-05-01T05:25:54.433Z,8.55
2023-05-01T05:28:20.750Z,8.33
2023-05-01T05:30:47.070Z,8.45
2023-05-01T05:33:13.493Z,8.80
2023-05-01T05:35:39.893Z,8.74
2023-05-01T05:38:06.199Z,8.88
2023-05-01T05:40:32.524Z,9.37
2023-05-01T05:42:58.854Z,9.48
2023-05-01T05:45:25.161Z,10.53
2023-05-01T05:47:51.523Z,11.05
2023-05-01T05:50:17.877Z,11.51
2023-05-01T05:52:44.194Z,12.40
2023-05-01T05:55:10.511Z,12.63
2023-05-01T05:57:36.831Z,12.76
2023-05-01T06:00:03.152Z,11.68
2023-05-01T06:02:29.508Z,12.35
2023-05-01T06:04:55.856Z,12.03
2023-05-01T06:07:22.169Z,11.03
2023-05-01T06:09:48.511Z,10.83
2023-05-01T06:12:14.828Z,10.34
2023-05-01T06:14:41.460Z,10.47
2023-05-01T06:17:07.792Z,10.99
2023-05-01T06:19:34.128Z,10.89
2023-05-01T06:22:00.454Z,11.05
2023-05-01T06:24:26.782Z,11.72
2023-05-01T06:26:53.129Z,11.70
2023-05-01T06:29:19.461Z,11.66
2023-05-01T06:31:45.856Z,11.13
2023-05-01T06:34:12.322Z,12.41
2023-05-01T06:36:38.633Z,12.11
2023-05-01T06:39:04.966Z,12.04
2023-05-01T06:41:31.288Z,11.86
2023-05-01T06:43:57.602Z,12.03
2023-05-01T06:46:23.941Z,12.39
2023-05-01T06:48:50.299Z,12.22
2023-05-01T06:51:16.614Z,12.15
2023-05-01T06:53:42.922Z,12.18
2023-05-01T06:56:09.234Z,12.14
2023-05-01T06:58:35.613Z,12.11
2023-05-01T07:01:01.952Z,12.04
2023-05-01T07:03:28.384Z,11.71
2023-05-01T07:05:54.733Z,11.82
2023-05-01T07:08:21.034Z,11.92
2023-05-01T07:10:47.378Z,11.85
2023-05-01T07:13:13.709Z,11.83
2023-05-01T07:15:40.026Z,11.84
2023-05-01T07:18:06.487Z,10.82
2023-05-01T07:20:32.902Z,9.92
2023-05-01T07:22:59.282Z,9.47
2023-05-01T07:25:25.600Z,9.69
2023-05-01T07:27:51.918Z,9.90
2023-05-01T07:30:18.258Z,10.18
2023-05-01T07:32:44.628Z,10.06
2023-05-01T07:35:10.954Z,8.75
2023-05-01T07:37:37.337Z,7.94
2023-05-01T07:40:03.676Z,8.08
2023-05-01T07:42:29.989Z,8.21
2023-05-01T07:44:56.321Z,8.64
2023-05-01T07:47:22.706Z,9.65
2023-05-01T07:49:49.043Z,7.60
2023-05-01T07:52:15.354Z,4.14
2023-05-01T07:54:41.746Z,3.03
2023-05-01T07:57:08.076Z,3.99
2023-05-01T07:59:34.417Z,5.24
2023-05-01T08:02:00.789Z,5.44
2023-05-01T08:04:27.155Z,4.42
2023-05-01T08:06:53.524Z,3.97
2023-05-01T08:09:19.847Z,4.24
2023-05-01T08:11:46.153Z,3.81
2023-05-01T08:14:12.501Z,3.76
2023-05-01T08:16:38.911Z,3.51
2023-05-01T08:19:05.305Z,3.01
2023-05-01T08:21:31.630Z,3.18
2023-05-01T08:23:57.951Z,2.75
2023-05-01T08:26:24.283Z,2.88
2023-05-01T08:28:50.640Z,2.82
2023-05-01T08:31:16.977Z,3.19
2023-05-01T08:33:43.311Z,2.91
2023-05-01T08:36:09.641Z,3.30
2023-05-01T08:38:35.966Z,3.39
2023-05-01T08:41:02.291Z,3.51
2023-05-01T08:43:28.661Z,3.23
2023-05-01T08:45:54.957Z,2.92
2023-05-01T08:48:21.286Z,3.20
2023-05-01T08:50:47.613Z,3.50
2023-05-01T08:53:13.918Z,3.60
2023-05-01T08:55:40.222Z,3.73
2023-05-01T08:58:06.550Z,3.90
2023-05-01T09:00:32.861Z,3.88
2023-05-01T09:02:59.204Z,3.35
2023-05-01T09:05:25.565Z,3.20
2023-05-01T09:07:51.869Z,3.25
2023-05-01T09:10:18.186Z,3.73
2023-05-01T09:12:44.491Z,3.84
2023-05-01T09:15:10.826Z,3.63
2023-05-01T09:17:37.193Z,2.81
2023-05-01T09:20:03.552Z,2.63
2023-05-01T09:22:29.851Z,2.43
2023-05-01T09:24:56.197Z,2.25
2023-05-01T09:27:22.549Z,2.08
2023-05-01T09:29:48.849Z,2.19
2023-05-01T09:32:15.215Z,2.28
2023-05-01T09:34:41.581Z,2.42
2023-05-01T09:37:07.910Z,2.42
2023-05-01T09:39:34.252Z,2.56
2023-05-01T09:42:00.580Z,2.44
2023-05-01T09:44:26.926Z,2.26
2023-05-01T09:46:53.249Z,2.34
2023-05-01T09:49:19.556Z,2.65
2023-05-01T09:51:45.858Z,2.64
2023-05-01T09:54:12.157Z,2.54
2023-05-01T09:56:38.473Z,2.38
2023-05-01T09:59:04.799Z,2.78
2023-05-01T10:01:31.196Z,2.59
2023-05-01T10:03:57.699Z,2.49
2023-05-01T10:06:24.166Z,2.68
2023-05-01T10:08:50.649Z,2.34
2023-05-01T10:11:17.016Z,2.31
2023-05-01T10:13:43.346Z,2.77
2023-05-01T10:16:09.687Z,3.21
2023-05-01T10:18:35.993Z,3.80
2023-05-01T10:21:02.478Z,3.77
2023-05-01T10:23:28.803Z,3.87
2023-05-01T10:25:55.144Z,3.93
2023-05-01T10:28:21.462Z,3.40
2023-05-01T10:30:47.769Z,3.66
2023-05-01T10:33:14.237Z,3.62
2023-05-01T10:35:40.705Z,3.60
2023-05-01T10:38:07.050Z,3.37
2023-05-01T10:40:33.364Z,3.65
2023-05-01T10:42:59.692Z,3.98
2023-05-01T10:45:25.997Z,3.91
2023-05-01T10:47:52.361Z,4.26
2023-05-01T10:50:18.754Z,4.04
2023-05-01T10:52:45.083Z,4.28
2023-05-01T10:55:11.415Z,4.38
2023-05-01T10:57:37.725Z,4.25
2023-05-01T11:00:04.055Z,4.74
2023-05-01T11:02:30.416Z,4.99
2023-05-01T11:04:57.122Z,4.77
2023-05-01T11:07:23.798Z,4.73
2023-05-01T11:09:50.216Z,4.81
2023-05-01T11:12:16.527Z,4.75
2023-05-01T11:14:42.845Z,4.64
2023-05-01T11:17:09.157Z,4.63
2023-05-01T11:19:35.462Z,4.82
2023-05-01T11:22:01.789Z,4.82
2023-05-01T11:24:28.119Z,4.83
2023-05-01T11:26:54.442Z,4.62
2023-05-01T11:29:20.745Z,4.27
2023-05-01T11:31:47.112Z,4.65
2023-05-01T11:34:13.417Z,4.63
2023-05-01T11:36:39.739Z,4.53
2023-05-01T11:39:06.056Z,4.38
2023-05-01T11:41:32.388Z,4.22
2023-05-01T11:43:58.714Z,4.29
2023-05-01T11:46:25.167Z,4.16
2023-05-01T11:48:51.565Z,4.12
2023-05-01T11:51:17.868Z,3.95
2023-05-01T11:53:44.181Z,4.14
2023-05-01T11:56:19.480Z,3.87
2023-05-01T11:58:52.098Z,4.08
2023-05-01T12:01:18.423Z,4.18
2023-05-01T12:03:44.829Z,4.24
2023-05-01T12:06:11.287Z,4.41
2023-05-01T12:08:37.660Z,4.71
2023-05-01T12:11:04.051Z,4.77
2023-05-01T12:13:30.412Z,5.21
2023-05-01T12:15:56.735Z,5.18
2023-05-01T12:18:23.133Z,5.08
2023-05-01T12:20:49.489Z,5.23
2023-05-01T12:23:15.808Z,5.46
2023-05-01T12:25:42.125Z,5.59
2023-05-01T12:28:08.460Z,5.77
2023-05-01T12:30:34.825Z,5.66
2023-05-01T12:33:01.214Z,5.51
2023-05-01T12:35:27.570Z,5.81
2023-05-01T12:37:53.873Z,5.54
2023-05-01T12:40:20.179Z,5.63
2023-05-01T12:42:46.501Z,5.72
2023-05-01T12:45:12.831Z,5.71
2023-05-01T12:47:39.159Z,5.75
2023-05-01T12:50:05.493Z,5.28
2023-05-01T12:52:31.802Z,5.58
2023-05-01T12:54:58.283Z,5.09
2023-05-01T12:57:24.888Z,4.89
2023-05-01T12:59:51.212Z,5.22
2023-05-01T13:02:17.667Z,4.88
2023-05-01T13:04:44.049Z,4.30
2023-05-01T13:07:10.351Z,4.30
2023-05-01T13:09:36.654Z,4.44
2023-05-01T13:12:02.968Z,4.45
2023-05-01T13:14:29.311Z,4.41
2023-05-01T13:16:55.632Z,4.11
2023-05-01T13:19:21.969Z,3.90
2023-05-01T13:21:48.287Z,3.98
2023-05-01T13:24:14.603Z,4.10
2023-05-01T13:26:40.918Z,3.77
2023-05-01T13:29:07.269Z,3.87
2023-05-01T13:31:33.635Z,3.81
2023-05-01T13:33:59.997Z,3.63
2023-05-01T13:36:27.231Z,3.68
2023-05-01T13:38:53.795Z,3.44
2023-05-01T13:41:20.122Z,3.25
2023-05-01T13:43:46.425Z,3.01
2023-05-01T13:46:12.774Z,2.83
2023-05-01T13:48:39.131Z,2.90
2023-05-01T13:51:05.461Z,2.87
2023-05-01T13:53:31.791Z,2.86
2023-05-01T13:55:58.141Z,2.89
2023-05-01T13:58:24.443Z,2.91
2023-05-01T14:00:50.825Z,2.85
2023-05-01T14:03:17.249Z,2.72
2023-05-01T14:05:43.613Z,2.77
2023-05-01T14:08:10.009Z,2.82
2023-05-01T14:10:36.333Z,2.53
2023-05-01T14:13:02.644Z,2.82
2023-05-01T14:15:28.995Z,2.87
2023-05-01T14:17:55.377Z,3.02
2023-05-01T14:20:21.713Z,3.14
2023-05-01T14:22:48.091Z,3.20
2023-05-01T14:25:14.429Z,3.25
2023-05-01T14:27:40.753Z,3.62
2023-05-01T14:30:07.070Z,3.67
2023-05-01T14:32:33.491Z,3.22
2023-05-01T14:34:59.964Z,3.20
2023-05-01T14:37:26.406Z,3.18
2023-05-01T14:39:52.761Z,2.98
2023-05-01T14:42:19.074Z,3.02
2023-05-01T14:44:45.380Z,3.18
2023-05-01T14:47:11.700Z,3.20
2023-05-01T14:49:38.022Z,3.32
2023-05-01T14:52:04.332Z,3.32
2023-05-01T14:54:30.662Z,3.07
2023-05-01T14:56:56.999Z,3.06
2023-05-01T14:59:23.317Z,3.17
2023-05-01T15:01:49.706Z,3.42
2023-05-01T15:04:16.208Z,3.54
2023-05-01T15:06:42.684Z,3.33
2023-05-01T15:09:09.009Z,3.21
2023-05-01T15:11:35.338Z,3.10
2023-05-01T15:14:01.673Z,3.53
2023-05-01T15:16:28.057Z,3.57
2023-05-01T15:18:54.459Z,3.54
2023-05-01T15:21:20.774Z,3.78
2023-05-01T15:23:47.090Z,3.44
2023-05-01T15:26:13.425Z,3.78
2023-05-01T15:28:39.750Z,3.68
2023-05-01T15:31:06.051Z,3.75
2023-05-01T15:33:32.409Z,3.53
2023-05-01T15:35:58.756Z,3.42
2023-05-01T15:38:25.070Z,3.46
2023-05-01T15:40:51.379Z,3.43
2023-05-01T15:43:17.701Z,3.17
2023-05-01T15:45:44.066Z,3.21
2023-05-01T15:48:10.510Z,3.24
2023-05-01T15:50:36.871Z,3.35
2023-05-01T15:53:03.186Z,3.15
2023-05-01T15:55:29.475Z,3.06
2023-05-01T15:57:55.770Z,3.27
2023-05-01T16:00:22.090Z,3.03
2023-05-01T16:02:48.524Z,3.64
2023-05-01T16:05:14.912Z,3.26
2023-05-01T16:07:41.214Z,3.61
2023-05-01T16:10:07.543Z,5.04
2023-05-01T16:12:33.856Z,5.14
2023-05-01T16:15:00.155Z,4.12
2023-05-01T16:17:26.516Z,3.62
2023-05-01T16:19:52.896Z,3.59
2023-05-01T16:22:19.220Z,3.65
2023-05-01T16:24:45.551Z,3.44
2023-05-01T16:27:11.867Z,3.45
2023-05-01T16:29:38.199Z,3.38
2023-05-01T16:32:04.575Z,3.60
2023-05-01T16:34:30.965Z,3.37
2023-05-01T16:36:57.288Z,3.51
2023-05-01T16:39:23.633Z,3.36
2023-05-01T16:41:49.969Z,3.00
2023-05-01T16:44:16.309Z,3.22
2023-05-01T16:46:42.748Z,3.22
2023-05-01T16:49:09.129Z,3.10
2023-05-01T16:51:35.455Z,3.23
2023-05-01T16:54:01.757Z,3.28
2023-05-01T16:56:28.118Z,3.19
2023-05-01T16:58:54.442Z,3.02
2023-05-01T17:01:20.780Z,3.21
2023-05-01T17:03:47.139Z,3.10
2023-05-01T17:06:13.532Z,3.15
2023-05-01T17:08:39.868Z,3.13
2023-05-01T17:11:06.202Z,3.19
2023-05-01T17:13:32.513Z,2.89
2023-05-01T17:15:58.829Z,3.01
2023-05-01T17:18:25.154Z,5.24
2023-05-01T17:20:51.469Z,4.09
2023-05-01T17:23:17.799Z,2.96
2023-05-01T17:25:44.147Z,3.27
2023-05-01T17:28:10.471Z,3.03
2023-05-01T17:30:36.786Z,3.09
2023-05-01T17:33:03.198Z,3.11
2023-05-01T17:35:29.584Z,3.14
2023-05-01T17:37:55.888Z,3.18
2023-05-01T17:40:22.230Z,3.24
2023-05-01T17:42:48.585Z,3.21
2023-05-01T17:45:14.891Z,3.38
2023-05-01T17:47:41.312Z,3.36
2023-05-01T17:50:07.745Z,3.20
2023-05-01T17:52:34.061Z,3.05
2023-05-01T17:55:00.366Z,3.17
2023-05-01T17:57:26.699Z,3.37
2023-05-01T17:59:53.035Z,3.47
2023-05-01T18:02:19.449Z,3.45
2023-05-01T18:04:45.822Z,3.32
2023-05-01T18:07:12.235Z,3.48
2023-05-01T18:09:38.556Z,3.35
2023-05-01T18:12:04.853Z,3.44
2023-05-01T18:14:31.155Z,3.43
2023-05-01T18:16:57.529Z,3.69
2023-05-01T18:19:23.922Z,3.72
2023-05-01T18:21:56.287Z,3.83
2023-05-01T18:24:22.611Z,3.66
2023-05-01T18:26:49.014Z,3.56
2023-05-01T18:29:15.343Z,3.35
2023-05-01T18:31:41.665Z,3.31
2023-05-01T18:34:08.044Z,3.26
2023-05-01T18:36:34.362Z,3.42
2023-05-01T18:39:00.674Z,3.46
2023-05-01T18:41:27.012Z,3.54
2023-05-01T18:43:56.375Z,3.48
2023-05-01T18:46:24.119Z,3.22
2023-05-01T18:48:50.453Z,3.30
2023-05-01T18:51:16.766Z,2.89
2023-05-01T18:53:43.068Z,2.70
2023-05-01T18:56:09.442Z,2.51
2023-05-01T18:58:35.805Z,2.44
2023-05-01T19:01:02.121Z,2.37
2023-05-01T19:03:28.443Z,2.62
2023-05-01T19:05:54.766Z,2.19
2023-05-01T19:08:21.092Z,2.39
2023-05-01T19:10:47.434Z,2.51
2023-05-01T19:13:13.756Z,2.63
2023-05-01T19:15:40.110Z,2.57
2023-05-01T19:18:06.506Z,2.70
2023-05-01T19:20:32.872Z,2.45
2023-05-01T19:22:59.195Z,2.64
2023-05-01T19:25:25.498Z,2.68
2023-05-01T19:27:51.831Z,2.86
2023-05-01T19:30:18.145Z,2.72
2023-05-01T19:32:44.479Z,2.78
2023-05-01T19:35:11.054Z,2.87
2023-05-01T19:37:37.428Z,3.16
2023-05-01T19:40:03.771Z,2.91
2023-05-01T19:42:30.085Z,3.25
2023-05-01T19:44:56.398Z,3.22
2023-05-01T19:47:22.787Z,3.13
2023-05-01T19:49:49.174Z,3.04
2023-05-01T19:52:15.477Z,3.03
2023-05-01T19:54:41.781Z,3.40
2023-05-01T19:57:08.092Z,3.16
2023-05-01T19:59:34.409Z,3.31
2023-05-01T20:02:01.436Z,3.25
2023-05-01T20:04:28.011Z,2.90
2023-05-01T20:06:54.479Z,3.32
2023-05-01T20:09:20.847Z,3.01
2023-05-01T20:11:47.181Z,3.25
2023-05-01T20:14:13.512Z,3.41
2023-05-01T20:16:39.884Z,3.36
2023-05-01T20:19:06.230Z,3.21
2023-05-01T20:21:32.551Z,3.42
2023-05-01T20:23:58.904Z,3.70
2023-05-01T20:26:25.211Z,3.90
2023-05-01T20:28:51.527Z,4.15
2023-05-01T20:31:17.914Z,4.80
2023-05-01T20:33:44.290Z,5.35
2023-05-01T20:36:10.609Z,5.51
2023-05-01T20:38:36.940Z,5.10
2023-05-01T20:41:03.251Z,4.74
2023-05-01T20:43:29.572Z,5.02
2023-05-01T20:45:56.006Z,5.11
2023-05-01T20:48:22.369Z,5.09
2023-05-01T20:50:48.748Z,5.52
2023-05-01T20:53:15.070Z,5.63
2023-05-01T20:55:41.401Z,5.36
2023-05-01T20:58:07.737Z,4.70
2023-05-01T21:00:34.071Z,4.25
2023-05-01T21:03:00.507Z,4.28
2023-05-01T21:05:26.942Z,4.18
2023-05-01T21:07:53.259Z,3.97
2023-05-01T21:10:19.568Z,3.79
2023-05-01T21:12:45.866Z,4.02
2023-05-01T21:15:12.165Z,4.11
2023-05-01T21:17:38.506Z,4.25
2023-05-01T21:20:04.873Z,3.22
2023-05-01T21:22:31.187Z,2.76
2023-05-01T21:24:57.533Z,2.71
2023-05-01T21:27:23.842Z,2.43
2023-05-01T21:29:50.161Z,2.12
2023-05-01T21:32:16.482Z,2.16
2023-05-01T21:34:42.805Z,2.39
2023-05-01T21:37:09.128Z,2.42
2023-05-01T21:39:35.457Z,2.42
2023-05-01T21:42:01.772Z,2.28
2023-05-01T21:44:28.086Z,2.36
2023-05-01T21:46:54.445Z,2.25
2023-05-01T21:49:20.819Z,2.40
2023-05-01T21:51:47.114Z,2.40
2023-05-01T21:54:13.424Z,2.46
2023-05-01T21:56:39.756Z,2.57
2023-05-01T21:59:06.092Z,2.53
2023-05-01T22:01:32.504Z,2.75
2023-05-01T22:03:58.948Z,2.57
2023-05-01T22:06:25.365Z,2.54
2023-05-01T22:08:51.702Z,2.42
2023-05-01T22:11:18.033Z,2.54
2023-05-01T22:13:44.353Z,2.47
2023-05-01T22:16:10.720Z,2.17
2023-05-01T22:18:37.042Z,2.21
2023-05-01T22:21:03.411Z,2.51
2023-05-01T22:23:29.737Z,2.37
2023-05-01T22:25:56.060Z,2.37
2023-05-01T22:28:22.798Z,2.44
2023-05-01T22:30:49.159Z,2.45
2023-05-01T22:33:15.502Z,2.53
2023-05-01T22:35:41.886Z,2.61
2023-05-01T22:38:08.214Z,2.77
2023-05-01T22:40:34.547Z,2.58
2023-05-01T22:43:00.869Z,2.81
2023-05-01T22:45:27.175Z,2.86
2023-05-01T22:47:53.530Z,2.90
2023-05-01T22:50:19.902Z,2.98
2023-05-01T22:52:46.626Z,3.08
2023-05-01T22:55:13.060Z,3.02
2023-05-01T22:57:39.404Z,3.29
2023-05-01T23:00:05.822Z,3.45
2023-05-01T23:02:32.235Z,3.32
2023-05-01T23:04:58.643Z,3.32
2023-05-01T23:07:24.961Z,3.17
2023-05-01T23:09:51.291Z,3.41
2023-05-01T23:12:17.620Z,3.26
2023-05-01T23:14:43.949Z,3.19
2023-05-01T23:17:10.271Z,3.10
2023-05-01T23:19:36.575Z,3.19
2023-05-01T23:22:02.893Z,3.35
2023-05-01T23:24:29.199Z,3.56
2023-05-01T23:26:55.504Z,3.62
2023-05-01T23:29:21.799Z,3.33
2023-05-01T23:31:48.131Z,3.12
2023-05-01T23:34:14.457Z,3.18
2023-05-01T23:36:40.758Z,3.50
2023-05-01T23:39:07.068Z,3.43
2023-05-01T23:41:33.391Z,3.22
2023-05-01T23:43:59.708Z,3.23
2023-05-01T23:46:26.057Z,3.50
2023-05-01T23:48:52.423Z,3.40
2023-05-01T23:51:18.755Z,3.57
2023-05-01T23:53:45.063Z,3.42
2023-05-01T23:56:11.386Z,3.52
2023-05-01T23:58:37.727Z,3.30
